Time;durP1;ratioP1;P1;durP2;ratioP2;P2;SDS_P1;SDS_P2;PMS_P1;PMS_P2;Temp;Humidity;BMP_temperature;BMP_pressure;BME280_temperature;BME280_humidity;BME280_pressure;Samples;Min_cycle;Max_cycle;Signal;HPM_P1;HPM_P2
2022/05/23 00:01:16;;;;;;;12.00;9.00;;;;;;;10.22;68.60;100338.76;109025;1266;22917;-74
2022/05/23 00:03:46;;;;;;;12.00;9.20;;;;;;;10.19;68.70;100336.67;109247;1264;21986;-74
2022/05/23 00:06:20;;;;;;;11.90;8.70;;;;;;;10.16;68.73;100339.98;109240;1264;23830;-74
2022/05/23 00:08:52;;;;;;;9.90;8.80;;;;;;;10.13;68.92;100340.77;109255;1265;24359;-75
2022/05/23 00:11:24;;;;;;;9.70;8.70;;;;;;;10.12;68.99;100339.88;109303;1264;22093;-75
2022/05/23 00:13:53;;;;;;;10.40;8.50;;;;;;;10.10;69.05;100337.93;109084;1265;23576;-75
2022/05/23 00:16:26;;;;;;;11.30;9.70;;;;;;;10.09;69.24;100341.52;109100;1267;22116;-74
2022/05/23 00:19:00;;;;;;;12.20;10.00;;;;;;;10.08;69.16;100341.13;109326;1265;21971;-75
2022/05/23 00:21:32;;;;;;;12.50;9.60;;;;;;;10.06;69.05;100341.06;109259;1265;22003;-75
2022/05/23 00:24:02;;;;;;;10.70;9.10;;;;;;;10.02;69.01;100343.05;109345;1264;22199;-75
2022/05/23 00:26:31;;;;;;;12.20;9.30;;;;;;;9.99;69.02;100342.29;109194;1267;23619;-74
2022/05/23 00:29:00;;;;;;;11.80;9.20;;;;;;;9.98;69.07;100340.89;109309;1264;21976;-75
2022/05/23 00:31:30;;;;;;;14.70;9.50;;;;;;;9.95;69.12;100337.34;109263;1267;23834;-75
2022/05/23 00:36:54;;;;;;;12.90;10.50;;;;;;;9.89;69.34;100335.41;108906;1270;21998;-75
2022/05/23 00:39:23;;;;;;;14.40;8.70;;;;;;;9.87;69.42;100333.58;108899;1270;21993;-75
2022/05/23 00:44:42;;;;;;;12.90;9.50;;;;;;;9.83;69.64;100335.20;108868;1270;21984;-75
2022/05/23 00:47:21;;;;;;;15.70;9.70;;;;;;;9.81;69.75;100333.42;108832;1270;22803;-74
2022/05/23 00:49:51;;;;;;;11.10;9.50;;;;;;;9.82;69.87;100330.76;108775;1270;22027;-75
2022/05/23 00:52:38;;;;;;;14.20;10.10;;;;;;;9.79;69.85;100331.22;108733;1271;22915;-74
2022/05/23 00:55:19;;;;;;;13.20;9.90;;;;;;;9.75;69.71;100330.95;109087;1263;23013;-75
2022/05/23 00:57:54;;;;;;;11.80;10.00;;;;;;;9.71;69.79;100333.52;108775;1271;22774;-74
2022/05/23 01:00:23;;;;;;;13.20;10.10;;;;;;;9.66;69.83;100336.80;108828;1270;22759;-75
2022/05/23 01:02:58;;;;;;;12.10;10.80;;;;;;;9.61;69.90;100335.08;108797;1270;22250;-77
2022/05/23 01:05:28;;;;;;;13.80;9.80;;;;;;;9.55;69.92;100331.31;108818;1270;22781;-75
2022/05/23 01:07:57;;;;;;;13.80;10.50;;;;;;;9.49;69.92;100333.01;108750;1270;22858;-75
2022/05/23 01:10:29;;;;;;;10.90;9.80;;;;;;;9.46;70.06;100332.80;108838;1270;22050;-74
2022/05/23 01:12:58;;;;;;;16.50;12.40;;;;;;;9.44;70.19;100336.55;108477;1270;23151;-75
2022/05/23 01:15:30;;;;;;;14.90;12.50;;;;;;;9.41;70.27;100340.52;108848;1264;21982;-75
2022/05/23 01:18:03;;;;;;;14.90;12.40;;;;;;;9.40;70.27;100343.99;109214;1264;23754;-76
2022/05/23 01:20:34;;;;;;;16.10;10.20;;;;;;;9.37;70.24;100343.89;109329;1265;23676;-74
2022/05/23 01:23:46;;;;;;;13.10;9.50;;;;;;;9.35;70.14;100344.30;109956;1264;21983;-75
2022/05/23 01:26:24;;;;;;;12.50;10.30;;;;;;;9.30;70.14;100346.06;109499;1264;22011;-75
2022/05/23 01:29:00;;;;;;;13.00;10.20;;;;;;;9.27;70.05;100339.76;109272;1264;22083;-75
2022/05/23 01:31:44;;;;;;;13.20;9.70;;;;;;;9.25;70.17;100337.45;109376;1264;21985;-75
2022/05/23 01:35:14;;;;;;;15.70;11.80;;;;;;;9.25;70.31;100335.18;109098;1270;22005;-73
2022/05/23 01:37:50;;;;;;;13.40;11.30;;;;;;;9.25;70.57;100334.48;109161;1279;22283;-75
2022/05/23 01:40:44;;;;;;;15.30;12.80;;;;;;;9.27;70.70;100338.68;109196;1276;23097;-77
2022/05/23 01:43:23;;;;;;;12.40;9.40;;;;;;;9.29;70.77;100334.96;109027;1276;21982;-74
2022/05/23 01:46:16;;;;;;;14.10;11.20;;;;;;;9.31;70.77;100332.29;108839;1275;23677;-75
2022/05/23 01:49:23;;;;;;;19.80;11.70;;;;;;;9.32;70.78;100329.04;108982;1276;21966;-74
2022/05/23 01:52:14;;;;;;;;;;;;;;;;;;;;;
2022/05/23 01:55:24;;;;;;;15.70;13.10;;;;;;;9.32;70.77;100326.53;108880;1273;21998;-75
2022/05/23 02:01:25;;;;;;;14.10;12.10;;;;;;;9.28;70.50;100321.31;109059;1273;22030;-74
2022/05/23 02:03:58;;;;;;;20.20;12.80;;;;;;;9.24;70.51;100320.02;108868;1273;23019;-74
2022/05/23 02:06:41;;;;;;;15.10;13.40;;;;;;;9.20;70.64;100318.85;109193;1273;22000;-74
2022/05/23 02:09:27;;;;;;;15.90;13.20;;;;;;;9.14;70.65;100318.92;108866;1273;23706;-75
2022/05/23 02:12:18;;;;;;;13.60;12.20;;;;;;;9.08;70.68;100314.27;108867;1272;21982;-74
2022/05/23 02:14:57;;;;;;;17.40;13.30;;;;;;;9.05;70.62;100317.08;109303;1264;21952;-76
2022/05/23 02:18:07;;;;;;;15.30;13.40;;;;;;;9.01;70.58;100318.21;109094;1270;23968;-74
2022/05/23 02:20:37;;;;;;;16.80;12.60;;;;;;;8.98;70.65;100315.52;108954;1274;23067;-75
2022/05/23 02:23:13;;;;;;;15.70;13.20;;;;;;;8.97;70.58;100314.17;109039;1270;22511;-74
2022/05/23 02:25:42;;;;;;;15.30;12.70;;;;;;;8.96;70.55;100315.72;108913;1270;22774;-75
2022/05/23 02:28:36;;;;;;;16.10;14.40;;;;;;;8.94;70.64;100311.67;109129;1270;21984;-75
2022/05/23 02:31:08;;;;;;;19.50;13.60;;;;;;;8.94;70.83;100311.36;108846;1270;22834;-77
2022/05/23 02:33:55;;;;;;;15.80;14.20;;;;;;;8.94;70.97;100308.47;108959;1270;24388;-76
2022/05/23 02:36:57;;;;;;;19.30;14.90;;;;;;;8.93;71.02;100308.60;108923;1270;24764;-74
2022/05/23 02:39:52;;;;;;;19.10;13.90;;;;;;;8.92;71.10;100304.52;108845;1270;21985;-75
2022/05/23 02:42:22;;;;;;;17.50;15.70;;;;;;;8.93;71.09;100305.83;108948;1270;22456;-75
2022/05/23 02:44:51;;;;;;;19.40;15.90;;;;;;;8.93;71.11;100305.44;108917;1272;24638;-75
2022/05/23 02:47:25;;;;;;;20.90;16.90;;;;;;;8.95;71.16;100307.20;108768;1271;22005;-75
2022/05/23 02:50:00;;;;;;;17.10;14.20;;;;;;;8.95;71.12;100306.14;108989;1271;22006;-74
2022/05/23 02:52:41;;;;;;;17.80;15.80;;;;;;;8.94;71.16;100305.50;109242;1267;21981;-75
2022/05/23 02:55:18;;;;;;;22.70;17.70;;;;;;;8.94;71.07;100302.38;109657;1265;21978;-75
2022/05/23 02:57:52;;;;;;;;;;;;;;;8.93;70.92;100300.89;109637;1264;22005;-76
2022/05/23 03:00:27;;;;;;;19.80;15.90;;;;;;;8.83;71.09;100300.68;109435;1270;22081;-77
2022/05/23 03:03:08;;;;;;;22.80;15.90;;;;;;;8.82;71.17;100298.50;109129;1270;22922;-75
2022/05/23 03:06:03;;;;;;;23.00;16.60;;;;;;;8.84;71.20;100297.42;109447;1270;22776;-74
2022/05/23 03:08:36;;;;;;;19.60;16.60;;;;;;;8.85;71.18;100287.85;108632;1276;23697;-75
2022/05/23 03:11:08;;;;;;;19.00;16.60;;;;;;;8.87;71.23;100284.08;108906;1276;23599;-74
2022/05/23 03:13:38;;;;;;;;;;;;;;;8.89;71.32;100282.46;108931;1275;22018;-75
2022/05/23 03:16:15;;;;;;;18.40;16.50;;;;;;;8.81;71.44;100281.91;108708;1276;23082;-75
2022/05/23 03:18:46;;;;;;;18.80;15.40;;;;;;;8.81;71.70;100284.08;108859;1270;21987;-75
2022/05/23 03:27:25;;;;;;;19.20;16.90;;;;;;;8.95;71.89;100279.09;109794;1264;21988;-75
2022/05/23 03:29:56;;;;;;;20.20;17.60;;;;;;;8.98;71.50;100276.49;109422;1265;21992;-75
2022/05/23 03:32:34;;;;;;;21.20;18.90;;;;;;;9.00;71.49;100276.50;109622;1264;21981;-75
2022/05/23 03:35:08;;;;;;;21.30;17.80;;;;;;;9.05;71.65;100282.39;109387;1270;22024;-77
2022/05/23 03:37:38;;;;;;;20.30;17.90;;;;;;;9.09;71.66;100283.56;109369;1270;22006;-75
2022/05/23 03:40:20;;;;;;;19.30;17.40;;;;;;;9.15;71.59;100283.98;109134;1270;21977;-75
2022/05/23 03:43:00;;;;;;;22.70;18.00;;;;;;;9.22;71.50;100289.94;109291;1270;22002;-75
2022/05/23 03:45:43;;;;;;;24.90;19.20;;;;;;;9.30;71.46;100295.68;109115;1269;22049;-74
2022/05/23 03:48:13;;;;;;;20.30;18.20;;;;;;;9.36;71.33;100298.14;108832;1270;22752;-75
2022/05/23 03:50:43;;;;;;;22.20;17.90;;;;;;;9.43;71.27;100298.31;109218;1270;23091;-73
2022/05/23 03:53:13;;;;;;;19.70;17.60;;;;;;;9.47;70.97;100297.51;109417;1263;21947;-75
2022/05/23 03:55:51;;;;;;;21.60;17.90;;;;;;;9.50;70.82;100302.11;109616;1264;23690;-75
2022/05/23 03:58:28;;;;;;;21.90;19.30;;;;;;;9.56;70.77;100306.81;109160;1267;22678;-74
2022/05/23 04:01:37;;;;;;;21.10;17.90;;;;;;;9.63;70.72;100308.88;108844;1268;23581;-76
2022/05/23 04:04:32;;;;;;;21.10;16.20;;;;;;;9.72;70.86;100311.92;108951;1268;23673;-76
2022/05/23 04:07:28;;;;;;;20.70;17.40;;;;;;;9.82;70.77;100311.92;109059;1268;23635;-75
2022/05/23 04:10:13;;;;;;;21.60;16.80;;;;;;;9.93;70.83;100313.62;108895;1268;21984;-75
2022/05/23 04:12:43;;;;;;;17.50;14.50;;;;;;;10.06;70.64;100314.35;108932;1270;22208;-75
2022/05/23 04:15:14;;;;;;;18.70;14.50;;;;;;;10.12;70.23;100313.59;108903;1270;21974;-75
2022/05/23 04:17:43;;;;;;;18.20;14.60;;;;;;;10.19;69.94;100315.77;108820;1270;21974;-75
2022/05/23 04:20:13;;;;;;;16.50;14.00;;;;;;;10.25;69.85;100318.10;109083;1268;23036;-75
2022/05/23 04:23:02;;;;;;;17.20;14.00;;;;;;;10.29;69.49;100320.14;108935;1268;22840;-75
2022/05/23 04:25:32;;;;;;;18.10;13.80;;;;;;;10.31;69.39;100325.27;109049;1268;22457;-74
2022/05/23 04:28:01;;;;;;;17.80;14.70;;;;;;;10.38;69.29;100330.77;108906;1268;23690;-75
2022/05/23 04:30:30;;;;;;;17.20;14.50;;;;;;;10.47;69.18;100332.98;108911;1270;22070;-75
2022/05/23 04:35:54;;;;;;;14.00;12.40;;;;;;;10.74;68.91;100333.14;109347;1264;22276;-74
2022/05/23 04:38:26;;;;;;;15.10;13.50;;;;;;;10.89;68.81;100333.77;109251;1265;21993;-75
2022/05/23 04:40:56;;;;;;;17.80;16.00;;;;;;;11.01;68.30;100333.98;109244;1264;23614;-74
2022/05/23 04:43:26;;;;;;;24.50;21.60;;;;;;;11.15;68.13;100331.05;108927;1267;23609;-74
2022/05/23 04:45:55;;;;;;;25.90;14.00;;;;;;;11.26;67.76;100330.64;109317;1265;22015;-74
2022/05/23 04:51:33;;;;;;;19.30;13.50;;;;;;;11.46;66.82;100339.39;109324;1265;22742;-75
2022/05/23 04:54:03;;;;;;;14.80;11.80;;;;;;;11.58;66.72;100340.31;109269;1265;23066;-75
2022/05/23 04:56:33;;;;;;;16.10;11.60;;;;;;;11.74;66.41;100336.86;109329;1265;23695;-74
2022/05/23 04:59:07;;;;;;;15.50;11.70;;;;;;;11.92;65.94;100334.98;109560;1264;21985;-74
2022/05/23 05:01:36;;;;;;;12.80;11.10;;;;;;;12.09;65.53;100337.27;109271;1267;21991;-74
2022/05/23 05:04:06;;;;;;;14.80;11.10;;;;;;;12.26;65.15;100339.05;109238;1264;23574;-74
2022/05/23 05:06:37;;;;;;;13.70;11.00;;;;;;;12.40;64.45;100342.70;109224;1267;21986;-75
2022/05/23 05:09:06;;;;;;;15.10;11.40;;;;;;;12.53;64.08;100345.36;109293;1267;21997;-75
2022/05/23 05:11:38;;;;;;;12.10;10.80;;;;;;;12.68;63.68;100344.48;109084;1268;22983;-75
2022/05/23 05:14:18;;;;;;;10.10;8.10;;;;;;;12.85;63.24;100342.56;108927;1268;23763;-75
2022/05/23 05:16:51;;;;;;;12.90;9.30;;;;;;;13.03;62.88;100348.63;109041;1270;22070;-74
2022/05/23 05:19:20;;;;;;;9.50;7.90;;;;;;;13.22;62.35;100351.22;109015;1268;23679;-74
2022/05/23 05:21:55;;;;;;;10.40;8.70;;;;;;;13.42;61.89;100348.98;109037;1268;22008;-74
2022/05/23 05:24:56;;;;;;;8.90;8.10;;;;;;;13.64;61.37;100349.41;108905;1270;22036;-75
2022/05/23 05:27:34;;;;;;;10.90;6.50;;;;;;;13.82;60.60;100348.58;109079;1268;21974;-76
2022/05/23 05:30:11;;;;;;;9.80;6.60;;;;;;;13.99;59.58;100349.55;109126;1265;23059;-77
2022/05/23 05:32:41;;;;;;;10.10;6.40;;;;;;;14.16;58.93;100352.36;109354;1265;23087;-77
2022/05/23 05:35:38;;;;;;;10.40;7.40;;;;;;;14.35;58.42;100357.60;109462;1264;22044;-76
2022/05/23 05:38:30;;;;;;;7.10;6.40;;;;;;;14.65;57.88;100361.08;109254;1265;23592;-76
2022/05/23 05:41:06;;;;;;;7.40;6.10;;;;;;;14.85;57.07;100366.53;109134;1267;21976;-78
2022/05/23 05:44:00;;;;;;;7.90;7.20;;;;;;;15.08;56.49;100364.94;109292;1265;21978;-78
2022/05/23 05:46:44;;;;;;;7.10;6.50;;;;;;;15.41;56.38;100363.04;109226;1265;21967;-77
2022/05/23 05:49:30;;;;;;;6.50;5.80;;;;;;;15.71;54.95;100362.95;109157;1265;22382;-77
2022/05/23 05:52:12;;;;;;;7.70;5.70;;;;;;;15.96;53.89;100364.86;109225;1265;23015;-78
2022/05/23 05:54:53;;;;;;;5.90;5.00;;;;;;;16.32;54.15;100368.05;108756;1270;22201;-77
2022/05/23 05:57:24;;;;;;;7.20;5.10;;;;;;;16.85;53.75;100369.61;108576;1273;21999;-78
2022/05/23 05:59:55;;;;;;;6.20;4.80;;;;;;;17.28;51.61;100376.24;108373;1279;21999;-77
2022/05/23 06:02:25;;;;;;;10.10;5.80;;;;;;;17.62;49.89;100377.57;108307;1279;22764;-76
2022/05/23 06:04:56;;;;;;;6.70;4.70;;;;;;;18.01;49.52;100376.60;108257;1279;23091;-76
2022/05/23 06:13:36;;;;;;;6.20;4.90;;;;;;;19.08;45.91;100387.02;108040;1279;23782;-78
2022/05/23 06:16:14;;;;;;;6.70;5.20;;;;;;;19.33;44.73;100388.22;107994;1279;23706;-76
2022/05/23 06:18:58;;;;;;;8.80;4.80;;;;;;;19.59;43.87;100392.45;108328;1278;21992;-79
2022/05/23 06:21:29;;;;;;;7.50;5.40;;;;;;;19.80;43.04;100390.63;108177;1276;22000;-77
2022/05/23 06:23:59;;;;;;;7.00;4.40;;;;;;;19.99;42.32;100388.17;108399;1276;22005;-76
2022/05/23 06:26:47;;;;;;;7.70;5.20;;;;;;;20.22;41.47;100385.55;108440;1276;23809;-74
2022/05/23 06:29:24;;;;;;;7.50;4.40;;;;;;;20.41;40.70;100381.98;108430;1276;22005;-75
2022/05/23 06:31:53;;;;;;;5.80;4.80;;;;;;;20.72;40.87;100380.19;108448;1276;23100;-76
2022/05/23 06:34:25;;;;;;;7.50;4.30;;;;;;;21.01;39.56;100376.55;108505;1275;23079;-75
2022/05/23 06:36:56;;;;;;;4.70;3.30;;;;;;;21.13;38.38;100376.91;108395;1276;23629;-75
2022/05/23 06:39:26;;;;;;;9.90;4.60;;;;;;;21.22;37.54;100375.34;108514;1273;22659;-78
2022/05/23 06:42:15;;;;;;;5.30;3.60;;;;;;;21.28;37.39;100373.92;108910;1270;23717;-74
2022/05/23 06:45:22;;;;;;;5.30;4.60;;;;;;;21.45;37.65;100376.91;108392;1276;21988;-74
2022/05/23 06:48:27;;;;;;;6.30;3.40;;;;;;;21.67;37.61;100374.79;108129;1282;22180;-74
2022/05/23 06:51:02;;;;;;;7.50;4.30;;;;;;;21.75;36.25;100371.65;107995;1282;22658;-74
2022/05/23 06:53:38;;;;;;;5.40;4.20;;;;;;;21.77;36.78;100366.83;108073;1282;22063;-77
2022/05/23 06:56:19;;;;;;;3.60;3.20;;;;;;;21.90;36.04;100364.55;107578;1288;22079;-76
2022/05/23 06:58:52;;;;;;;8.50;4.30;;;;;;;21.96;35.94;100363.30;107972;1282;22131;-74
2022/05/23 07:01:46;;;;;;;;;;;;;;;21.99;35.57;100360.51;107991;1282;21969;-73
2022/05/23 07:13:34;;;;;;;5.60;3.20;;;;;;;22.33;36.03;100354.69;108032;1279;22006;-73
2022/05/23 07:16:05;;;;;;;5.60;3.50;;;;;;;22.70;36.08;100346.24;108433;1273;23580;-73
2022/05/23 07:18:34;;;;;;;7.30;4.00;;;;;;;23.06;35.55;100341.96;108685;1273;22068;-73
2022/05/23 07:21:08;;;;;;;6.70;4.00;;;;;;;23.35;34.64;100339.56;108482;1273;237293;-73
2022/05/23 07:23:55;;;;;;;8.50;4.30;;;;;;;23.49;33.68;100340.63;109156;1267;22358;-73
2022/05/23 07:26:50;;;;;;;6.60;4.20;;;;;;;23.48;33.00;100338.31;109063;1266;23069;-73
2022/05/23 07:29:24;;;;;;;5.70;3.70;;;;;;;23.45;32.84;100336.16;108928;1267;22139;-77
2022/05/23 07:31:55;;;;;;;4.80;3.70;;;;;;;23.55;32.65;100336.44;109012;1266;23058;-76
2022/05/23 07:34:30;;;;;;;8.70;3.40;;;;;;;23.69;32.91;100334.13;109241;1264;21986;-78
2022/05/23 07:37:02;;;;;;;5.20;3.30;;;;;;;23.92;32.73;100327.91;109451;1267;22693;-77
2022/05/23 07:39:35;;;;;;;7.50;3.00;;;;;;;23.99;31.71;100323.92;108794;1270;21983;-76
2022/05/23 07:42:35;;;;;;;7.10;3.30;;;;;;;23.94;31.20;100315.05;108435;1276;23791;-79
2022/05/23 07:45:08;;;;;;;4.20;3.00;;;;;;;23.89;31.05;100314.45;108391;1276;21985;-77
2022/05/23 07:47:38;;;;;;;7.30;2.70;;;;;;;23.97;30.90;100308.64;108535;1276;21952;-77
2022/05/23 07:50:37;;;;;;;4.20;2.60;;;;;;;24.08;30.55;100305.70;108554;1275;21980;-76
2022/05/23 08:01:47;;;;;;;4.10;3.40;;;;;;;24.49;28.52;100303.79;109257;1267;22048;-78
2022/05/23 08:04:19;;;;;;;8.30;2.50;;;;;;;24.18;28.53;100299.95;108957;1266;23757;-77
2022/05/23 08:06:52;;;;;;;3.30;2.50;;;;;;;23.85;28.57;100300.61;108937;1267;23769;-77
2022/05/23 08:09:22;;;;;;;4.70;2.40;;;;;;;23.96;29.96;100297.89;108838;1273;22752;-77
2022/05/23 08:12:00;;;;;;;3.40;2.80;;;;;;;24.35;30.09;100291.42;108828;1270;22443;-77
2022/05/23 08:14:30;;;;;;;5.80;3.20;;;;;;;24.69;29.10;100287.11;108827;1270;23041;-78
2022/05/23 08:17:06;;;;;;;3.50;2.80;;;;;;;24.83;28.82;100290.04;108810;1270;23051;-78
2022/05/23 08:19:40;;;;;;;4.10;2.50;;;;;;;24.88;28.23;100290.10;108707;1270;22098;-77
2022/05/23 08:22:22;;;;;;;2.80;2.50;;;;;;;24.55;27.48;100287.83;108765;1270;21990;-77
2022/05/23 08:24:58;;;;;;;3.10;2.50;;;;;;;24.37;28.30;100285.29;108768;1270;23853;-77
2022/05/23 08:27:31;;;;;;;3.50;2.90;;;;;;;24.28;28.65;100287.11;109010;1265;22029;-76
2022/05/23 08:30:05;;;;;;;7.60;2.80;;;;;;;24.41;29.29;100277.00;109279;1264;22011;-78
2022/05/23 08:32:36;;;;;;;7.60;2.80;;;;;;;24.54;28.41;100276.77;109411;1265;23052;-78
2022/05/23 08:35:14;;;;;;;2.50;2.10;;;;;;;24.46;28.45;100271.32;109494;1264;23585;-78
2022/05/23 08:37:45;;;;;;;6.10;2.80;;;;;;;24.61;28.45;100268.00;109179;1267;21973;-77
2022/05/23 08:41:08;;;;;;;6.50;2.70;;;;;;;24.80;28.19;100263.80;109091;1267;21991;-77
2022/05/23 08:43:52;;;;;;;5.50;3.20;;;;;;;24.93;28.26;100261.48;109299;1265;23650;-78
2022/05/23 08:47:05;;;;;;;3.10;2.40;;;;;;;24.98;27.93;100266.25;109273;1267;22010;-78
2022/05/23 08:49:50;;;;;;;3.40;2.60;;;;;;;24.83;27.65;100268.27;108904;1270;22054;-79
2022/05/23 08:52:33;;;;;;;4.30;2.70;;;;;;;24.74;27.71;100267.04;109055;1269;21991;-78
2022/05/23 08:55:20;;;;;;;3.00;2.00;;;;;;;24.70;27.53;100270.84;108885;1270;23718;-78
2022/05/23 08:58:55;;;;;;;5.90;2.00;;;;;;;24.76;28.10;100262.55;108896;1273;23618;-78
2022/05/23 09:01:52;;;;;;;4.10;2.10;;;;;;;25.08;28.18;100260.91;108891;1270;22332;-78
2022/05/23 09:04:48;;;;;;;3.00;1.70;;;;;;;25.23;26.94;100265.77;108473;1273;23706;-77
2022/05/23 09:07:29;;;;;;;3.10;1.80;;;;;;;25.14;26.58;100262.59;108560;1274;21985;-78
2022/05/23 09:10:05;;;;;;;3.10;2.40;;;;;;;25.16;26.78;100261.85;108525;1276;22027;-76
2022/05/23 09:12:34;;;;;;;4.40;2.50;;;;;;;25.31;26.77;100260.17;108617;1275;21986;-77
2022/05/23 09:15:04;;;;;;;2.90;1.70;;;;;;;25.45;26.18;100257.41;108787;1273;23095;-77
2022/05/23 09:17:42;;;;;;;4.60;2.20;;;;;;;25.37;25.74;100255.56;108750;1276;21982;-78
2022/05/23 09:20:19;;;;;;;4.80;1.90;;;;;;;25.25;26.18;100254.67;108582;1276;23801;-78
2022/05/23 09:22:53;;;;;;;4.90;1.60;;;;;;;25.22;26.38;100250.13;108879;1273;24312;-79
2022/05/23 09:25:26;;;;;;;3.10;1.80;;;;;;;25.23;26.18;100246.68;108861;1270;21998;-76
2022/05/23 09:28:25;;;;;;;5.10;2.00;;;;;;;25.25;26.14;100251.44;109061;1266;21987;-77
2022/05/23 09:31:11;;;;;;;2.70;1.90;;;;;;;25.05;25.21;100254.17;109565;1265;21958;-77
2022/05/23 09:33:48;;;;;;;2.50;1.60;;;;;;;24.72;25.47;100246.92;109309;1267;22284;-77
2022/05/23 09:36:36;;;;;;;4.50;1.70;;;;;;;24.75;26.46;100234.98;109291;1267;22206;-76
2022/05/23 09:39:11;;;;;;;5.30;1.60;;;;;;;24.91;26.26;100233.91;108964;1267;21996;-77
2022/05/23 09:47:45;;;;;;;3.50;1.50;;;;;;;24.82;26.81;100225.52;109039;1267;24378;-78
2022/05/23 09:50:37;;;;;;;4.90;1.60;;;;;;;25.02;26.08;100222.17;109055;1266;22071;-78
2022/05/23 09:53:24;;;;;;;3.00;1.80;;;;;;;24.99;25.71;100219.73;109033;1265;21979;-78
2022/05/23 09:56:40;;;;;;;3.80;1.30;;;;;;;25.01;26.14;100217.73;109569;1264;22006;-77
2022/05/23 09:59:19;;;;;;;2.70;1.60;;;;;;;24.82;25.24;100217.73;109583;1263;21960;-77
2022/05/23 10:01:48;;;;;;;2.50;1.40;;;;;;;24.46;25.53;100214.33;109266;1264;23663;-77
2022/05/23 10:04:25;;;;;;;2.20;1.30;;;;;;;24.34;25.95;100209.23;109562;1264;23708;-77
2022/05/23 10:06:56;;;;;;;3.60;1.70;;;;;;;24.12;25.23;100213.11;109237;1264;21983;-78
2022/05/23 10:09:34;;;;;;;1.60;0.90;;;;;;;23.85;25.91;100209.52;108998;1264;24526;-77
2022/05/23 10:12:25;;;;;;;4.10;1.30;;;;;;;23.80;26.58;100204.98;109179;1264;21986;-78
2022/05/23 10:15:14;;;;;;;2.90;1.20;;;;;;;23.94;26.55;100204.47;108829;1273;22915;-77
2022/05/23 10:17:43;;;;;;;2.20;1.10;;;;;;;24.08;25.85;100198.95;108835;1273;22038;-77
2022/05/23 10:20:29;;;;;;;2.40;1.60;;;;;;;24.06;25.76;100199.20;108789;1273;21991;-77
2022/05/23 10:23:14;;;;;;;2.40;1.70;;;;;;;24.06;25.93;100202.17;108667;1273;22006;-77
2022/05/23 10:26:16;;;;;;;3.50;2.70;;;;;;;23.97;26.13;100196.61;108331;1276;23720;-78
2022/05/23 10:28:53;;;;;;;3.40;2.30;;;;;;;23.89;26.54;100191.92;108341;1276;22004;-77
2022/05/23 10:32:07;;;;;;;2.30;1.70;;;;;;;23.86;26.47;100190.30;108418;1276;23620;-78
2022/05/23 10:34:56;;;;;;;3.60;2.00;;;;;;;23.66;26.26;100186.17;108446;1275;22027;-77
2022/05/23 10:37:32;;;;;;;4.80;2.00;;;;;;;23.36;26.64;100188.02;108376;1276;22003;-77
2022/05/23 10:43:20;;;;;;;5.20;2.30;;;;;;;22.84;27.55;100184.09;108081;1283;23098;-78
2022/05/23 10:46:00;;;;;;;5.60;2.10;;;;;;;22.41;28.11;100174.33;108455;1276;22012;-78
2022/05/23 10:49:11;;;;;;;5.60;2.70;;;;;;;22.02;28.24;100176.52;108245;1280;22007;-78
2022/05/23 10:52:31;;;;;;;3.20;1.90;;;;;;;21.51;29.31;100171.13;108363;1280;22293;-77
2022/05/23 10:55:15;;;;;;;4.50;2.40;;;;;;;21.31;29.73;100169.02;107758;1286;22148;-78
2022/05/23 10:58:13;;;;;;;4.10;1.80;;;;;;;21.06;29.94;100165.17;107637;1286;23913;-76
2022/05/23 11:01:10;;;;;;;5.20;2.20;;;;;;;20.86;30.16;100162.14;107494;1289;23753;-77
2022/05/23 11:04:29;;;;;;;1.90;1.30;;;;;;;20.58;30.13;100167.88;107260;1292;21975;-77
2022/05/23 11:07:28;;;;;;;1.40;1.10;;;;;;;20.36;30.69;100158.39;107225;1292;22168;-78
2022/05/23 11:10:18;;;;;;;2.40;1.60;;;;;;;20.24;30.56;100157.27;107272;1290;23849;-78
2022/05/23 11:13:05;;;;;;;3.30;2.20;;;;;;;20.09;31.03;100148.10;107876;1286;21996;-78
2022/05/23 11:15:46;;;;;;;8.00;2.80;;;;;;;20.04;31.39;100149.48;107918;1286;23094;-77
2022/05/23 11:18:38;;;;;;;5.50;2.60;;;;;;;19.93;31.85;100147.65;107726;1286;22145;-77
2022/05/23 11:21:16;;;;;;;4.20;2.50;;;;;;;19.80;32.41;100144.71;107802;1285;23169;-77
2022/05/23 11:23:58;;;;;;;3.70;3.20;;;;;;;19.72;33.04;100142.52;107919;1285;22533;-77
2022/05/23 11:26:42;;;;;;;3.20;1.90;;;;;;;19.71;33.38;100138.67;107631;1286;22874;-77
2022/05/23 11:35:21;;;;;;;2.50;1.40;;;;;;;19.56;33.02;100124.58;108539;1273;21990;-77
2022/05/23 11:37:52;;;;;;;3.60;1.80;;;;;;;19.47;33.11;100117.92;108922;1264;24354;-76
2022/05/23 11:40:30;;;;;;;3.60;2.20;;;;;;;19.37;33.07;100116.73;108953;1267;23137;-78
2022/05/23 11:43:10;;;;;;;14.40;13.10;;;;;;;19.30;33.11;100115.71;109468;1264;23594;-78
2022/05/23 11:46:04;;;;;;;2.90;1.90;;;;;;;19.27;33.23;100119.83;108962;1267;21998;-77
2022/05/23 11:48:50;;;;;;;3.40;2.00;;;;;;;19.22;33.08;100124.78;109267;1266;23005;-78
2022/05/23 11:51:41;;;;;;;3.20;2.00;;;;;;;19.15;33.55;100115.23;108815;1270;22052;-78
2022/05/23 11:54:31;;;;;;;3.00;1.70;;;;;;;19.14;33.56;100112.06;108684;1273;22108;-77
2022/05/23 11:57:00;;;;;;;2.10;1.40;;;;;;;19.11;33.91;100108.49;108792;1270;21994;-77
2022/05/23 11:59:49;;;;;;;2.70;1.80;;;;;;;19.17;34.71;100104.09;108856;1270;22777;-77
2022/05/23 12:02:25;;;;;;;4.30;2.30;;;;;;;19.23;34.78;100099.32;108417;1277;23206;-77
2022/05/23 12:04:55;;;;;;;2.70;2.10;;;;;;;19.23;34.65;100100.27;108387;1277;21985;-79
2022/05/23 12:07:31;;;;;;;2.80;1.10;;;;;;;19.21;34.47;100096.27;108450;1276;22057;-78
2022/05/23 12:10:22;;;;;;;2.90;1.30;;;;;;;19.18;34.55;100089.14;108326;1276;24324;-76
2022/05/23 12:13:20;;;;;;;2.10;1.20;;;;;;;19.14;34.48;100084.21;108387;1276;22022;-77
2022/05/23 12:15:56;;;;;;;2.10;1.20;;;;;;;19.05;34.14;100079.54;108397;1276;23658;-78
2022/05/23 12:18:28;;;;;;;4.00;1.60;;;;;;;18.98;34.21;100075.98;108391;1276;23795;-77
2022/05/23 12:21:27;;;;;;;3.90;1.80;;;;;;;18.97;34.45;100073.45;108414;1276;21967;-77
2022/05/23 12:24:21;;;;;;;2.30;2.00;;;;;;;18.96;34.45;100073.54;108517;1276;22000;-77
2022/05/23 12:27:42;;;;;;;7.10;2.10;;;;;;;18.95;34.80;100061.08;108402;1276;22774;-77
2022/05/23 12:30:21;;;;;;;2.60;1.80;;;;;;;19.04;34.99;100058.05;108679;1273;21989;-80
2022/05/23 12:33:14;;;;;;;3.10;2.20;;;;;;;19.06;34.93;100056.77;108739;1273;22742;-78
2022/05/23 12:35:54;;;;;;;5.80;1.80;;;;;;;18.99;34.97;100053.06;108706;1273;22452;-77
2022/05/23 12:38:29;;;;;;;1.90;1.60;;;;;;;18.97;35.24;100043.46;108765;1273;21994;-77
2022/05/23 12:41:30;;;;;;;2.10;1.90;;;;;;;19.02;35.38;100038.23;109612;1262;21985;-77
2022/05/23 12:44:42;;;;;;;5.50;4.90;;;;;;;19.03;35.52;100034.80;109695;1271;22015;-78
2022/05/23 12:47:56;;;;;;;6.50;5.20;;;;;;;19.06;35.27;100031.55;109034;1273;23068;-77
2022/05/23 12:50:54;;;;;;;3.20;2.30;;;;;;;19.12;35.29;100035.73;108461;1279;21997;-78
2022/05/23 12:53:29;;;;;;;3.20;1.80;;;;;;;19.08;34.82;100030.23;108549;1279;22059;-77
2022/05/23 12:56:58;;;;;;;3.80;1.80;;;;;;;19.05;34.49;100028.63;108427;1279;23718;-76
2022/05/23 12:59:51;;;;;;;3.30;2.20;;;;;;;19.10;34.30;100020.48;108195;1279;22040;-77
2022/05/23 13:03:02;;;;;;;3.80;2.50;;;;;;;19.15;34.10;100014.55;108537;1273;23818;-77
2022/05/23 13:05:40;;;;;;;4.00;1.80;;;;;;;19.18;34.00;100014.21;108315;1280;22018;-77
2022/05/23 13:08:18;;;;;;;4.00;1.40;;;;;;;19.18;33.90;100007.98;108136;1280;23165;-79
2022/05/23 13:10:57;;;;;;;4.70;2.10;;;;;;;19.20;33.92;100009.80;108300;1280;22142;-77
2022/05/23 13:13:36;;;;;;;2.70;2.00;;;;;;;19.20;33.75;100003.76;108081;1280;21992;-78
2022/05/23 13:16:20;;;;;;;2.80;1.90;;;;;;;19.18;33.66;100001.89;108324;1279;22011;-81
2022/05/23 13:24:52;;;;;;;4.40;3.90;;;;;;;19.09;33.91;99991.92;108472;1279;22050;-78
2022/05/23 13:27:44;;;;;;;8.10;7.40;;;;;;;19.11;34.03;99993.90;108658;1272;22113;-77